createdAt,value
2023-03-12T00:00:11.338Z,3.13
2023-03-12T00:02:38.251Z,7.10
2023-03-12T00:05:05.436Z,4.07
2023-03-12T00:07:32.477Z,2.60
2023-03-12T00:09:59.292Z,2.63
2023-03-12T00:12:26.239Z,2.47
2023-03-12T00:14:53.030Z,3.77
2023-03-12T00:17:19.766Z,3.43
2023-03-12T00:19:46.485Z,2.70
2023-03-12T00:22:14.218Z,2.40
2023-03-12T00:24:40.979Z,2.03
2023-03-12T00:27:07.735Z,2.00
2023-03-12T00:29:34.495Z,2.90
2023-03-12T00:32:01.298Z,3.77
2023-03-12T00:34:28.179Z,5.90
2023-03-12T00:36:54.917Z,7.90
2023-03-12T00:39:21.707Z,5.70
2023-03-12T00:41:48.473Z,3.20
2023-03-12T00:44:15.190Z,4.67
2023-03-12T00:46:41.965Z,7.97
2023-03-12T00:49:08.839Z,3.10
2023-03-12T00:51:35.638Z,5.23
2023-03-12T00:54:03.423Z,8.60
2023-03-12T00:56:30.293Z,3.63
2023-03-12T00:58:57.212Z,4.40
2023-03-12T01:01:24.376Z,8.47
2023-03-12T01:03:52.294Z,6.53
2023-03-12T01:06:19.554Z,2.40
2023-03-12T01:08:46.418Z,2.20
2023-03-12T01:11:15.333Z,7.53
2023-03-12T01:13:42.100Z,2.33
2023-03-12T01:16:08.922Z,6.87
2023-03-12T01:18:35.885Z,5.97
2023-03-12T01:21:03.557Z,2.53
2023-03-12T01:23:30.367Z,4.60
2023-03-12T01:25:57.403Z,9.80
2023-03-12T01:28:25.167Z,6.43
2023-03-12T01:30:52.405Z,2.70
2023-03-12T01:33:19.216Z,8.87
2023-03-12T01:35:46.082Z,4.43
2023-03-12T01:38:15.274Z,7.23
2023-03-12T01:40:43.387Z,7.37
2023-03-12T01:43:39.883Z,4.70
2023-03-12T01:46:12.568Z,4.33
2023-03-12T01:48:48.049Z,8.83
2023-03-12T01:51:16.336Z,7.90
2023-03-12T01:53:47.641Z,2.50
2023-03-12T01:56:16.444Z,5.03
2023-03-12T01:58:47.199Z,13.77
2023-03-12T02:01:17.305Z,5.73
2023-03-12T02:03:50.841Z,4.10
2023-03-12T02:06:22.371Z,10.40
2023-03-12T02:08:50.876Z,4.50
2023-03-12T02:11:17.681Z,2.70
2023-03-12T02:13:44.816Z,9.80
2023-03-12T02:16:11.728Z,11.87
2023-03-12T02:18:38.566Z,3.10
2023-03-12T02:21:16.260Z,12.53
2023-03-12T02:26:25.376Z,13.50
2023-03-12T02:28:53.147Z,3.93
2023-03-12T02:31:24.702Z,3.00
2023-03-12T02:33:53.190Z,13.40
2023-03-12T02:36:20.796Z,4.50
2023-03-12T02:38:50.155Z,6.10
2023-03-12T02:41:32.529Z,3.90
2023-03-12T02:44:03.013Z,7.63
2023-03-12T02:46:34.623Z,4.20
2023-03-12T02:49:01.924Z,4.20
2023-03-12T02:51:28.890Z,9.27
2023-03-12T02:53:55.939Z,2.73
2023-03-12T02:56:24.433Z,7.07
2023-03-12T02:58:51.317Z,2.80
2023-03-12T03:01:18.985Z,2.80
2023-03-12T03:03:45.901Z,3.83
2023-03-12T03:06:13.016Z,3.03
2023-03-12T03:08:39.877Z,4.70
2023-03-12T03:11:07.394Z,6.23
2023-03-12T03:13:34.412Z,6.73
2023-03-12T03:16:02.171Z,4.30
2023-03-12T03:18:30.770Z,10.03
2023-03-12T03:21:06.634Z,2.50
2023-03-12T03:23:34.288Z,7.73
2023-03-12T03:26:01.340Z,2.93
2023-03-12T03:28:29.638Z,7.07
2023-03-12T03:31:00.884Z,8.87
2023-03-12T03:33:29.057Z,5.83
2023-03-12T03:35:57.305Z,9.63
2023-03-12T03:38:24.124Z,6.50
2023-03-12T03:40:50.860Z,3.03
2023-03-12T03:43:17.605Z,5.10
2023-03-12T03:45:44.917Z,10.80
2023-03-12T03:48:12.680Z,3.37
2023-03-12T03:50:40.248Z,3.67
2023-03-12T03:53:08.247Z,3.87
2023-03-12T03:55:39.369Z,5.03
2023-03-12T03:58:06.995Z,3.23
2023-03-12T04:00:34.557Z,6.30
2023-03-12T04:03:01.357Z,6.57
2023-03-12T04:05:28.188Z,3.47
2023-03-12T04:07:55.448Z,3.20
2023-03-12T04:10:24.585Z,6.33
2023-03-12T04:12:53.066Z,14.83
2023-03-12T04:15:19.855Z,6.10
2023-03-12T04:17:46.720Z,4.30
2023-03-12T04:20:13.696Z,14.37
2023-03-12T04:22:40.537Z,3.70
2023-03-12T04:25:07.840Z,17.60
2023-03-12T04:27:35.045Z,5.33
2023-03-12T04:30:01.818Z,10.00
2023-03-12T04:32:28.661Z,11.23
2023-03-12T04:34:55.496Z,4.60
2023-03-12T04:37:22.581Z,7.73
2023-03-12T04:39:49.312Z,5.43
2023-03-12T04:42:16.144Z,5.73
2023-03-12T04:44:42.938Z,4.47
2023-03-12T04:47:09.748Z,6.03
2023-03-12T04:49:39.089Z,3.27
2023-03-12T04:52:06.324Z,3.43
2023-03-12T04:54:33.443Z,4.27
2023-03-12T04:57:00.207Z,7.33
2023-03-12T04:59:27.038Z,5.77
2023-03-12T05:01:53.801Z,6.83
2023-03-12T05:04:20.572Z,3.87
2023-03-12T05:06:47.313Z,4.43
2023-03-12T05:09:14.048Z,2.70
2023-03-12T05:11:40.814Z,3.33
2023-03-12T05:14:07.547Z,12.80
2023-03-12T05:16:34.318Z,7.27
2023-03-12T05:19:02.405Z,5.27
2023-03-12T05:21:29.144Z,6.47
2023-03-12T05:23:57.604Z,4.47
2023-03-12T05:26:28.088Z,4.97
2023-03-12T05:28:55.182Z,4.13
2023-03-12T05:31:22.015Z,6.63
2023-03-12T05:33:52.262Z,3.70
2023-03-12T05:36:19.632Z,3.30
2023-03-12T05:38:46.886Z,3.90
2023-03-12T05:41:25.918Z,3.17
2023-03-12T05:43:54.609Z,2.40
2023-03-12T05:46:21.397Z,3.70
2023-03-12T05:48:48.261Z,3.63
2023-03-12T05:51:15.250Z,10.80
2023-03-12T05:53:42.024Z,3.10
2023-03-12T05:56:13.479Z,3.87
2023-03-12T05:58:40.542Z,6.43
2023-03-12T06:01:33.679Z,3.43
2023-03-12T06:04:00.410Z,8.17
2023-03-12T06:06:27.297Z,11.00
2023-03-12T06:08:54.055Z,13.90
2023-03-12T06:11:20.790Z,4.17
2023-03-12T06:13:47.580Z,2.37
2023-03-12T06:16:25.349Z,7.60
2023-03-12T06:18:56.634Z,5.00
2023-03-12T06:21:27.067Z,3.50
2023-03-12T06:26:25.903Z,9.13
2023-03-12T06:28:53.049Z,2.43
2023-03-12T06:31:21.027Z,2.97
2023-03-12T06:33:48.338Z,3.00
2023-03-12T06:36:15.170Z,4.30
2023-03-12T06:38:42.240Z,2.87
2023-03-12T06:41:12.347Z,7.77
2023-03-12T06:43:40.730Z,4.50
2023-03-12T06:46:11.460Z,11.23
2023-03-12T06:48:41.341Z,7.73
2023-03-12T06:51:10.068Z,5.30
2023-03-12T06:53:37.078Z,7.30
2023-03-12T06:56:04.616Z,4.90
2023-03-12T06:58:31.651Z,6.23
2023-03-12T07:00:58.695Z,5.60
2023-03-12T07:03:25.698Z,8.33
2023-03-12T07:05:52.498Z,13.50
2023-03-12T07:08:19.370Z,8.67
2023-03-12T07:10:46.441Z,13.30
2023-03-12T07:13:13.325Z,7.50
2023-03-12T07:15:40.443Z,7.13
2023-03-12T07:18:09.312Z,4.80
2023-03-12T07:21:17.291Z,5.50
2023-03-12T07:26:11.939Z,9.43
2023-03-12T07:28:38.693Z,8.40
2023-03-12T07:31:05.820Z,2.53
2023-03-12T07:33:33.445Z,7.13
2023-03-12T07:36:00.582Z,3.60
2023-03-12T07:38:27.486Z,5.30
2023-03-12T07:40:56.066Z,7.40
2023-03-12T07:43:24.201Z,10.83
2023-03-12T07:45:51.643Z,7.70
2023-03-12T07:48:21.645Z,6.97
2023-03-12T07:50:48.986Z,6.27
2023-03-12T07:53:15.958Z,3.80
2023-03-12T07:55:46.151Z,4.10
2023-03-12T07:58:13.543Z,4.17
2023-03-12T08:00:40.468Z,7.47
2023-03-12T08:03:07.559Z,6.73
2023-03-12T08:05:34.502Z,5.43
2023-03-12T08:08:01.276Z,8.20
2023-03-12T08:10:28.434Z,8.93
2023-03-12T08:12:55.280Z,10.90
2023-03-12T08:15:22.068Z,9.83
2023-03-12T08:17:49.112Z,5.80
2023-03-12T08:20:15.974Z,7.13
2023-03-12T08:22:42.835Z,6.07
2023-03-12T08:25:10.359Z,11.13
2023-03-12T08:27:37.242Z,7.53
2023-03-12T08:30:06.565Z,6.30
2023-03-12T08:32:33.662Z,11.47
2023-03-12T08:35:00.554Z,5.63
2023-03-12T08:37:27.317Z,6.27
2023-03-12T08:39:54.735Z,6.40
2023-03-12T08:42:21.512Z,7.23
2023-03-12T08:44:48.312Z,5.63
2023-03-12T08:47:15.282Z,16.17
2023-03-12T08:49:42.007Z,7.77
2023-03-12T08:52:08.739Z,8.90
2023-03-12T08:54:35.596Z,6.10
2023-03-12T08:57:02.331Z,6.97
2023-03-12T08:59:29.121Z,7.60
2023-03-12T09:01:56.653Z,6.97
2023-03-12T09:04:23.506Z,7.17
2023-03-12T09:06:50.334Z,10.10
2023-03-12T09:09:17.186Z,7.07
2023-03-12T09:11:44.094Z,6.60
2023-03-12T09:16:58.277Z,6.37
2023-03-12T09:19:25.133Z,6.40
2023-03-12T09:21:51.866Z,7.47
2023-03-12T09:24:18.708Z,8.17
2023-03-12T09:26:46.068Z,9.17
2023-03-12T09:29:12.892Z,8.93
2023-03-12T09:31:39.811Z,8.00
2023-03-12T09:34:06.602Z,7.07
2023-03-12T09:36:33.573Z,7.13
2023-03-12T09:39:00.873Z,5.97
2023-03-12T09:41:33.863Z,6.80
2023-03-12T09:44:20.406Z,8.13
2023-03-12T09:46:56.800Z,8.43
2023-03-12T09:49:46.617Z,7.40
2023-03-12T09:52:34.118Z,9.73
2023-03-12T09:55:19.968Z,10.57
2023-03-12T09:57:48.646Z,7.93
2023-03-12T10:00:18.693Z,14.13
2023-03-12T10:03:03.468Z,7.90
2023-03-12T10:05:57.625Z,8.70
2023-03-12T10:09:02.535Z,10.60
2023-03-12T10:11:43.651Z,11.73
2023-03-12T10:14:29.832Z,8.97
2023-03-12T10:17:41.345Z,8.13
2023-03-12T10:20:26.696Z,8.77
2023-03-12T10:23:13.001Z,9.10
2023-03-12T10:25:55.812Z,9.53
2023-03-12T10:28:34.597Z,11.87
2023-03-12T10:31:06.550Z,12.80
2023-03-12T10:33:42.840Z,13.50
2023-03-12T10:36:15.407Z,18.97
2023-03-12T10:38:42.150Z,10.30
2023-03-12T10:41:24.361Z,10.67
2023-03-12T10:43:51.483Z,16.20
2023-03-12T10:46:37.402Z,13.27
2023-03-12T10:49:22.236Z,19.70
2023-03-12T10:52:05.916Z,15.40
2023-03-12T10:54:34.406Z,21.13
2023-03-12T10:57:01.274Z,16.07
2023-03-12T10:59:34.787Z,16.63
2023-03-12T11:02:19.084Z,16.63
2023-03-12T11:04:51.791Z,15.00
2023-03-12T11:07:19.990Z,18.53
2023-03-12T11:10:04.258Z,26.33
2023-03-12T11:12:31.466Z,20.23
2023-03-12T11:14:59.103Z,17.20
2023-03-12T11:17:29.069Z,17.40
2023-03-12T11:19:56.233Z,32.30
2023-03-12T11:22:35.046Z,25.20
2023-03-12T11:25:07.490Z,18.17
2023-03-12T11:27:46.067Z,28.23
2023-03-12T11:30:17.975Z,22.53
2023-03-12T11:32:49.891Z,25.23
2023-03-12T11:35:21.023Z,28.33
2023-03-12T11:38:08.012Z,27.93
2023-03-12T11:41:29.298Z,30.27
2023-03-12T11:44:23.513Z,28.63
2023-03-12T11:47:14.259Z,33.90
2023-03-12T11:50:13.264Z,24.83
2023-03-12T11:52:56.473Z,34.57
2023-03-12T11:56:00.188Z,32.43
2023-03-12T11:58:33.754Z,36.93
2023-03-12T12:01:09.529Z,50.87
2023-03-12T12:04:15.557Z,36.83
2023-03-12T12:06:55.950Z,34.80
2023-03-12T12:09:43.146Z,49.90
2023-03-12T12:13:08.304Z,33.80
2023-03-12T12:15:55.797Z,43.67
2023-03-12T12:18:47.078Z,36.87
2023-03-12T12:21:16.847Z,37.07
2023-03-12T12:26:36.779Z,31.40
2023-03-12T12:29:21.189Z,36.77
2023-03-12T12:31:56.048Z,33.20
2023-03-12T12:34:34.653Z,36.30
2023-03-12T12:37:23.052Z,28.93
2023-03-12T12:40:08.826Z,29.17
2023-03-12T12:42:42.598Z,31.43
2023-03-12T12:45:14.192Z,25.80
2023-03-12T12:47:57.418Z,23.30
2023-03-12T12:50:29.356Z,34.47
2023-03-12T12:53:07.770Z,26.57
2023-03-12T12:55:41.238Z,40.77
2023-03-12T12:58:17.692Z,32.93
2023-03-12T13:00:49.526Z,37.43
2023-03-12T13:03:23.391Z,37.67
2023-03-12T13:05:53.123Z,29.17
2023-03-12T13:08:44.291Z,27.73
2023-03-12T13:11:20.481Z,34.67
2023-03-12T13:14:02.806Z,35.27
2023-03-12T13:16:38.721Z,34.80
2023-03-12T13:19:14.176Z,30.60
2023-03-12T13:22:04.543Z,39.07
2023-03-12T13:24:51.877Z,33.63
2023-03-12T13:27:25.756Z,48.10
2023-03-12T13:29:57.250Z,25.23
2023-03-12T13:32:58.032Z,44.30
2023-03-12T13:35:24.742Z,36.83
2023-03-12T13:37:51.532Z,39.03
2023-03-12T13:40:30.329Z,21.53
2023-03-12T13:43:30.559Z,23.30
2023-03-12T13:46:21.015Z,23.93
2023-03-12T13:48:49.741Z,29.03
2023-03-12T13:51:23.612Z,24.17
2023-03-12T13:53:58.046Z,19.27
2023-03-12T13:56:30.937Z,25.43
2023-03-12T13:59:02.598Z,37.30
2023-03-12T14:01:42.463Z,31.47
2023-03-12T14:04:23.539Z,36.17
2023-03-12T14:06:59.834Z,31.30
2023-03-12T14:09:26.770Z,34.70
2023-03-12T14:12:31.981Z,21.33
2023-03-12T14:15:05.591Z,15.63
2023-03-12T14:17:34.620Z,32.00
2023-03-12T14:20:17.621Z,39.00
2023-03-12T14:22:50.113Z,20.93
2023-03-12T14:25:26.930Z,30.30
2023-03-12T14:27:54.019Z,30.27
2023-03-12T14:30:25.606Z,26.00
2023-03-12T14:33:00.204Z,27.10
2023-03-12T14:35:42.028Z,16.13
2023-03-12T14:38:23.085Z,27.37
2023-03-12T14:41:06.706Z,22.37
2023-03-12T14:43:35.401Z,27.03
2023-03-12T14:46:05.923Z,19.53
2023-03-12T14:48:35.122Z,27.17
2023-03-12T14:51:04.163Z,28.27
2023-03-12T14:53:32.721Z,22.27
2023-03-12T14:56:08.758Z,26.57
2023-03-12T14:58:42.102Z,23.73
2023-03-12T15:01:15.102Z,23.30
2023-03-12T15:03:46.309Z,27.03
2023-03-12T15:06:27.138Z,28.43
2023-03-12T15:08:54.708Z,31.23
2023-03-12T15:11:24.556Z,37.87
2023-03-12T15:13:53.624Z,20.20
2023-03-12T15:16:21.751Z,26.50
2023-03-12T15:18:50.376Z,28.47
2023-03-12T15:21:17.816Z,27.83
2023-03-12T15:26:19.602Z,28.03
2023-03-12T15:29:01.332Z,36.13
2023-03-12T15:31:40.218Z,32.77
2023-03-12T15:34:07.296Z,28.77
2023-03-12T15:36:35.600Z,23.90
2023-03-12T15:39:12.879Z,18.00
2023-03-12T15:41:48.818Z,23.07
2023-03-12T15:44:24.808Z,23.30
2023-03-12T15:47:03.548Z,22.37
2023-03-12T15:49:34.360Z,21.13
2023-03-12T15:52:19.190Z,25.87
2023-03-12T15:55:10.373Z,22.73
2023-03-12T15:57:46.321Z,20.60
2023-03-12T16:00:18.303Z,27.07
2023-03-12T16:02:53.996Z,22.27
2023-03-12T16:05:23.790Z,16.83
2023-03-12T16:07:50.745Z,21.50
2023-03-12T16:10:20.475Z,25.80
2023-03-12T16:12:50.311Z,23.40
2023-03-12T16:15:22.809Z,18.70
2023-03-12T16:17:49.548Z,28.67
2023-03-12T16:20:17.821Z,21.33
2023-03-12T16:22:44.911Z,18.07
2023-03-12T16:25:13.207Z,30.17
2023-03-12T16:27:46.848Z,23.10
2023-03-12T16:30:22.635Z,25.03
2023-03-12T16:32:49.501Z,30.13
2023-03-12T16:35:18.782Z,27.30
2023-03-12T16:37:46.518Z,30.77
2023-03-12T16:40:21.211Z,28.73
2023-03-12T16:43:02.531Z,33.70
2023-03-12T16:45:30.858Z,29.03
2023-03-12T16:48:03.594Z,33.33
2023-03-12T16:50:30.842Z,22.27
2023-03-12T16:52:58.021Z,27.33
2023-03-12T16:55:30.213Z,31.40
2023-03-12T16:58:01.133Z,29.90
2023-03-12T17:00:30.964Z,31.43
2023-03-12T17:02:59.174Z,23.63
2023-03-12T17:05:28.288Z,24.33
2023-03-12T17:07:56.153Z,32.77
2023-03-12T17:10:24.144Z,32.57
2023-03-12T17:12:51.735Z,21.63
2023-03-12T17:15:26.324Z,38.67
2023-03-12T17:17:55.609Z,45.57
2023-03-12T17:20:24.442Z,35.80
2023-03-12T17:22:51.243Z,41.03
2023-03-12T17:25:27.574Z,34.27
2023-03-12T17:27:56.521Z,25.93
2023-03-12T17:30:24.827Z,37.17
2023-03-12T17:32:52.565Z,40.10
2023-03-12T17:35:19.798Z,25.47
2023-03-12T17:37:48.547Z,30.77
2023-03-12T17:40:16.468Z,28.47
2023-03-12T17:42:43.301Z,26.80
2023-03-12T17:45:10.602Z,24.47
2023-03-12T17:47:37.693Z,26.57
2023-03-12T17:50:06.226Z,36.63
2023-03-12T17:52:34.099Z,33.07
2023-03-12T17:55:01.236Z,20.70
2023-03-12T17:57:28.301Z,19.07
2023-03-12T17:59:55.104Z,20.87
2023-03-12T18:02:22.328Z,20.80
2023-03-12T18:04:49.197Z,27.63
2023-03-12T18:07:16.089Z,24.77
2023-03-12T18:09:42.872Z,21.40
2023-03-12T18:12:11.145Z,24.30
2023-03-12T18:14:38.300Z,19.60
2023-03-12T18:17:05.149Z,21.97
2023-03-12T18:19:32.316Z,17.80
2023-03-12T18:22:00.369Z,19.80
2023-03-12T18:24:27.155Z,23.30
2023-03-12T18:26:54.197Z,21.47
2023-03-12T18:29:20.940Z,24.70
2023-03-12T18:31:47.652Z,19.30
2023-03-12T18:34:14.399Z,22.90
2023-03-12T18:36:41.143Z,12.80
2023-03-12T18:39:09.767Z,32.17
2023-03-12T18:41:36.654Z,24.67
2023-03-12T18:44:03.674Z,19.77
2023-03-12T18:46:30.564Z,22.97
2023-03-12T18:48:57.514Z,29.73
2023-03-12T18:51:24.285Z,14.83
2023-03-12T18:53:51.039Z,13.93
2023-03-12T18:56:19.735Z,22.73
2023-03-12T18:58:46.495Z,25.77
2023-03-12T19:01:14.044Z,34.57
2023-03-12T19:03:40.834Z,21.10
2023-03-12T19:06:12.845Z,26.73
2023-03-12T19:08:40.565Z,18.97
2023-03-12T19:11:10.436Z,23.20
2023-03-12T19:13:37.536Z,14.20
2023-03-12T19:16:08.706Z,20.97
2023-03-12T19:18:36.848Z,32.00
2023-03-12T19:21:04.046Z,35.53
2023-03-12T19:23:30.871Z,23.07
2023-03-12T19:25:57.622Z,23.20
2023-03-12T19:28:24.410Z,12.50
2023-03-12T19:30:51.150Z,25.13
2023-03-12T19:33:17.926Z,20.67
2023-03-12T19:35:44.795Z,26.47
2023-03-12T19:38:11.614Z,30.33
2023-03-12T19:40:38.310Z,25.30
2023-03-12T19:43:05.135Z,29.90
2023-03-12T19:45:31.979Z,14.80
2023-03-12T19:47:58.786Z,28.93
2023-03-12T19:50:25.607Z,20.93
2023-03-12T19:52:52.346Z,13.80
2023-03-12T19:55:19.103Z,25.43
2023-03-12T19:57:45.855Z,22.03
2023-03-12T20:00:13.029Z,24.27
2023-03-12T20:02:39.938Z,15.67
2023-03-12T20:05:07.907Z,28.03
2023-03-12T20:07:36.845Z,22.17
2023-03-12T20:10:05.635Z,20.60
2023-03-12T20:12:32.897Z,31.77
2023-03-12T20:14:59.631Z,32.43
2023-03-12T20:17:26.444Z,24.93
2023-03-12T20:19:53.250Z,17.77
2023-03-12T20:22:19.984Z,27.13
2023-03-12T20:24:46.751Z,20.70
2023-03-12T20:27:13.714Z,20.80
2023-03-12T20:29:40.526Z,26.43
2023-03-12T20:32:07.424Z,20.80
2023-03-12T20:34:34.152Z,32.23
2023-03-12T20:37:00.938Z,25.43
2023-03-12T20:39:27.703Z,28.70
2023-03-12T20:41:54.424Z,22.70
2023-03-12T20:44:21.192Z,27.57
2023-03-12T20:46:48.213Z,24.33
2023-03-12T20:49:15.244Z,26.23
2023-03-12T20:51:42.864Z,18.63
2023-03-12T20:54:09.890Z,18.97
2023-03-12T20:56:38.203Z,29.53
2023-03-12T20:59:05.062Z,28.40
2023-03-12T21:01:32.166Z,21.70
2023-03-12T21:03:59.108Z,26.40
2023-03-12T21:06:26.236Z,30.57
2023-03-12T21:08:56.144Z,30.53
2023-03-12T21:11:23.163Z,28.00
2023-03-12T21:13:49.879Z,17.80
2023-03-12T21:16:19.696Z,14.43
2023-03-12T21:18:46.544Z,23.40
2023-03-12T21:21:13.472Z,25.10
2023-03-12T21:26:18.731Z,26.80
2023-03-12T21:28:45.697Z,19.27
2023-03-12T21:31:17.154Z,22.83
2023-03-12T21:33:44.037Z,21.50
2023-03-12T21:36:13.334Z,18.83
2023-03-12T21:38:42.831Z,13.37
2023-03-12T21:41:15.216Z,20.40
2023-03-12T21:43:43.396Z,11.73
2023-03-12T21:46:19.234Z,19.07
2023-03-12T21:48:48.106Z,23.03
2023-03-12T21:51:16.448Z,17.07
2023-03-12T21:53:43.711Z,19.77
2023-03-12T21:56:11.552Z,30.30
2023-03-12T21:58:38.354Z,18.67
2023-03-12T22:01:12.197Z,18.07
2023-03-12T22:03:39.841Z,21.63
2023-03-12T22:06:06.906Z,20.27
2023-03-12T22:08:34.201Z,16.80
2023-03-12T22:11:01.126Z,19.33
2023-03-12T22:13:27.900Z,24.30
2023-03-12T22:15:59.825Z,16.70
2023-03-12T22:18:27.436Z,38.60
2023-03-12T22:20:56.465Z,17.43
2023-03-12T22:23:24.354Z,16.13
2023-03-12T22:25:51.374Z,13.87
2023-03-12T22:28:18.591Z,18.43
2023-03-12T22:30:46.029Z,16.70
2023-03-12T22:33:13.345Z,17.17
2023-03-12T22:35:46.924Z,19.13
2023-03-12T22:38:13.669Z,9.87
2023-03-12T22:40:41.011Z,10.23
2023-03-12T22:43:08.027Z,18.83
2023-03-12T22:45:35.017Z,11.83
2023-03-12T22:48:01.899Z,16.30
2023-03-12T22:50:28.746Z,14.70
2023-03-12T22:52:55.482Z,13.57
2023-03-12T22:55:22.236Z,21.03
2023-03-12T22:57:48.973Z,14.13
2023-03-12T23:00:19.276Z,20.63
2023-03-12T23:02:45.994Z,13.67
2023-03-12T23:05:12.717Z,11.60
2023-03-12T23:07:39.453Z,21.33
2023-03-12T23:10:08.330Z,12.30
2023-03-12T23:12:35.080Z,18.20
2023-03-12T23:15:01.786Z,14.27
2023-03-12T23:17:28.541Z,16.13
2023-03-12T23:19:55.332Z,10.67
2023-03-12T23:22:22.050Z,17.90
2023-03-12T23:24:49.756Z,16.07
2023-03-12T23:27:16.646Z,22.50
2023-03-12T23:29:43.454Z,14.33
2023-03-12T23:32:10.239Z,13.47
2023-03-12T23:34:36.982Z,18.80
2023-03-12T23:37:03.832Z,11.30
2023-03-12T23:39:30.940Z,13.90
2023-03-12T23:41:58.033Z,14.20
2023-03-12T23:44:24.967Z,11.10
2023-03-12T23:46:51.856Z,12.70
2023-03-12T23:49:18.611Z,10.93
2023-03-12T23:51:45.773Z,12.10
2023-03-12T23:54:12.586Z,21.83
2023-03-12T23:56:40.850Z,19.30
2023-03-12T23:59:09.178Z,10.87
